sensor_id;sensor_type;location;lat;lon;timestamp;P1;durP1;ratioP1;P2;durP2;ratioP2
20067;SDS011;10194;50.824;7.134;2022-08-05T00:01:38;14.82;;;7.82;;
20067;SDS011;10194;50.824;7.134;2022-08-05T00:03:57;13.10;;;8.82;;
20067;SDS011;10194;50.824;7.134;2022-08-05T00:06:23;12.02;;;7.70;;
20067;SDS011;10194;50.824;7.134;2022-08-05T00:08:49;10.43;;;7.38;;
20067;SDS011;10194;50.824;7.134;2022-08-05T00:11:15;13.95;;;7.07;;
20067;SDS011;10194;50.824;7.134;2022-08-05T00:13:42;11.50;;;7.18;;
20067;SDS011;10194;50.824;7.134;2022-08-05T00:16:11;10.15;;;7.07;;
20067;SDS011;10194;50.824;7.134;2022-08-05T00:18:40;13.38;;;7.95;;
20067;SDS011;10194;50.824;7.134;2022-08-05T00:21:09;14.02;;;7.55;;
20067;SDS011;10194;50.824;7.134;2022-08-05T00:23:36;15.18;;;7.82;;
20067;SDS011;10194;50.824;7.134;2022-08-05T00:26:04;11.50;;;8.75;;
20067;SDS011;10194;50.824;7.134;2022-08-05T00:28:30;11.43;;;6.90;;
20067;SDS011;10194;50.824;7.134;2022-08-05T00:30:56;17.73;;;8.88;;
20067;SDS011;10194;50.824;7.134;2022-08-05T00:33:22;13.10;;;7.57;;
20067;SDS011;10194;50.824;7.134;2022-08-05T00:35:47;13.13;;;8.40;;
20067;SDS011;10194;50.824;7.134;2022-08-05T00:38:13;13.15;;;7.18;;
20067;SDS011;10194;50.824;7.134;2022-08-05T00:40:46;9.55;;;6.93;;
20067;SDS011;10194;50.824;7.134;2022-08-05T00:43:15;11.77;;;7.10;;
20067;SDS011;10194;50.824;7.134;2022-08-05T00:45:41;10.32;;;7.50;;
20067;SDS011;10194;50.824;7.134;2022-08-05T00:48:08;9.27;;;7.05;;
20067;SDS011;10194;50.824;7.134;2022-08-05T00:50:40;12.68;;;7.40;;
20067;SDS011;10194;50.824;7.134;2022-08-05T00:53:08;14.52;;;7.65;;
20067;SDS011;10194;50.824;7.134;2022-08-05T00:55:35;12.77;;;7.03;;
20067;SDS011;10194;50.824;7.134;2022-08-05T00:58:01;10.10;;;6.95;;
20067;SDS011;10194;50.824;7.134;2022-08-05T01:00:27;10.82;;;7.72;;
20067;SDS011;10194;50.824;7.134;2022-08-05T01:02:55;11.32;;;7.50;;
20067;SDS011;10194;50.824;7.134;2022-08-05T01:05:22;12.35;;;7.45;;
20067;SDS011;10194;50.824;7.134;2022-08-05T01:07:49;10.27;;;7.22;;
20067;SDS011;10194;50.824;7.134;2022-08-05T01:10:15;10.38;;;7.07;;
20067;SDS011;10194;50.824;7.134;2022-08-05T01:12:46;9.10;;;6.85;;
20067;SDS011;10194;50.824;7.134;2022-08-05T01:15:33;10.77;;;7.22;;
20067;SDS011;10194;50.824;7.134;2022-08-05T01:18:18;10.48;;;7.90;;
20067;SDS011;10194;50.824;7.134;2022-08-05T01:26:54;10.90;;;7.97;;
20067;SDS011;10194;50.824;7.134;2022-08-05T01:29:35;11.68;;;7.38;;
20067;SDS011;10194;50.824;7.134;2022-08-05T01:32:07;11.88;;;7.57;;
20067;SDS011;10194;50.824;7.134;2022-08-05T01:34:55;12.48;;;7.75;;
20067;SDS011;10194;50.824;7.134;2022-08-05T01:37:44;11.80;;;7.68;;
20067;SDS011;10194;50.824;7.134;2022-08-05T01:40:14;12.18;;;7.30;;
20067;SDS011;10194;50.824;7.134;2022-08-05T01:42:41;12.10;;;8.00;;
20067;SDS011;10194;50.824;7.134;2022-08-05T01:45:10;12.15;;;8.40;;
20067;SDS011;10194;50.824;7.134;2022-08-05T01:47:39;11.20;;;7.53;;
20067;SDS011;10194;50.824;7.134;2022-08-05T01:50:07;10.88;;;7.90;;
20067;SDS011;10194;50.824;7.134;2022-08-05T01:52:38;13.20;;;7.65;;
20067;SDS011;10194;50.824;7.134;2022-08-05T01:55:08;8.35;;;6.97;;
20067;SDS011;10194;50.824;7.134;2022-08-05T01:57:37;9.65;;;7.03;;
20067;SDS011;10194;50.824;7.134;2022-08-05T02:00:06;10.77;;;7.30;;
20067;SDS011;10194;50.824;7.134;2022-08-05T02:02:34;11.60;;;7.60;;
20067;SDS011;10194;50.824;7.134;2022-08-05T02:05:05;12.35;;;7.75;;
20067;SDS011;10194;50.824;7.134;2022-08-05T02:07:34;12.13;;;8.15;;
20067;SDS011;10194;50.824;7.134;2022-08-05T02:10:01;15.73;;;8.93;;
20067;SDS011;10194;50.824;7.134;2022-08-05T02:15:07;15.45;;;9.02;;
20067;SDS011;10194;50.824;7.134;2022-08-05T02:17:40;12.27;;;8.25;;
20067;SDS011;10194;50.824;7.134;2022-08-05T02:20:16;13.38;;;7.45;;
20067;SDS011;10194;50.824;7.134;2022-08-05T02:22:47;12.85;;;7.85;;
20067;SDS011;10194;50.824;7.134;2022-08-05T02:25:28;13.30;;;7.88;;
20067;SDS011;10194;50.824;7.134;2022-08-05T02:27:59;11.00;;;7.35;;
20067;SDS011;10194;50.824;7.134;2022-08-05T02:30:29;10.18;;;5.93;;
20067;SDS011;10194;50.824;7.134;2022-08-05T02:33:01;9.15;;;5.80;;
20067;SDS011;10194;50.824;7.134;2022-08-05T02:35:31;7.45;;;5.30;;
20067;SDS011;10194;50.824;7.134;2022-08-05T02:37:59;7.70;;;4.95;;
20067;SDS011;10194;50.824;7.134;2022-08-05T02:40:26;12.95;;;5.35;;
20067;SDS011;10194;50.824;7.134;2022-08-05T02:42:52;7.80;;;5.40;;
20067;SDS011;10194;50.824;7.134;2022-08-05T02:45:20;6.57;;;5.25;;
20067;SDS011;10194;50.824;7.134;2022-08-05T02:47:48;8.73;;;5.18;;
20067;SDS011;10194;50.824;7.134;2022-08-05T02:50:16;7.95;;;5.18;;
20067;SDS011;10194;50.824;7.134;2022-08-05T02:52:43;12.38;;;6.22;;
20067;SDS011;10194;50.824;7.134;2022-08-05T02:55:10;11.07;;;5.97;;
20067;SDS011;10194;50.824;7.134;2022-08-05T02:57:38;12.45;;;7.47;;
20067;SDS011;10194;50.824;7.134;2022-08-05T03:00:05;16.48;;;8.80;;
20067;SDS011;10194;50.824;7.134;2022-08-05T03:02:33;17.50;;;10.20;;
20067;SDS011;10194;50.824;7.134;2022-08-05T03:05:02;17.08;;;9.60;;
20067;SDS011;10194;50.824;7.134;2022-08-05T03:07:32;19.52;;;9.85;;
20067;SDS011;10194;50.824;7.134;2022-08-05T03:09:59;14.15;;;9.57;;
20067;SDS011;10194;50.824;7.134;2022-08-05T03:12:32;17.90;;;10.10;;
20067;SDS011;10194;50.824;7.134;2022-08-05T03:15:00;12.68;;;9.32;;
20067;SDS011;10194;50.824;7.134;2022-08-05T03:17:28;14.00;;;9.05;;
20067;SDS011;10194;50.824;7.134;2022-08-05T03:19:53;17.17;;;10.07;;
20067;SDS011;10194;50.824;7.134;2022-08-05T03:22:19;15.73;;;9.43;;
20067;SDS011;10194;50.824;7.134;2022-08-05T03:24:46;15.23;;;9.18;;
20067;SDS011;10194;50.824;7.134;2022-08-05T03:27:14;15.05;;;9.63;;
20067;SDS011;10194;50.824;7.134;2022-08-05T03:29:40;18.08;;;10.27;;
20067;SDS011;10194;50.824;7.134;2022-08-05T03:32:07;15.88;;;9.95;;
20067;SDS011;10194;50.824;7.134;2022-08-05T03:34:33;15.38;;;9.70;;
20067;SDS011;10194;50.824;7.134;2022-08-05T03:37:00;17.75;;;11.25;;
20067;SDS011;10194;50.824;7.134;2022-08-05T03:39:27;21.73;;;11.93;;
20067;SDS011;10194;50.824;7.134;2022-08-05T03:41:54;19.60;;;12.02;;
20067;SDS011;10194;50.824;7.134;2022-08-05T03:44:20;20.10;;;11.45;;
20067;SDS011;10194;50.824;7.134;2022-08-05T03:46:46;17.75;;;11.55;;
20067;SDS011;10194;50.824;7.134;2022-08-05T03:49:12;20.92;;;11.48;;
20067;SDS011;10194;50.824;7.134;2022-08-05T03:51:45;18.10;;;11.63;;
20067;SDS011;10194;50.824;7.134;2022-08-05T03:57:06;16.05;;;11.15;;
20067;SDS011;10194;50.824;7.134;2022-08-05T03:59:37;18.40;;;11.80;;
20067;SDS011;10194;50.824;7.134;2022-08-05T04:02:07;20.88;;;12.73;;
20067;SDS011;10194;50.824;7.134;2022-08-05T04:04:35;22.00;;;13.93;;
20067;SDS011;10194;50.824;7.134;2022-08-05T04:07:02;20.02;;;12.95;;
20067;SDS011;10194;50.824;7.134;2022-08-05T04:09:30;23.67;;;13.07;;
20067;SDS011;10194;50.824;7.134;2022-08-05T04:11:56;26.08;;;14.52;;
20067;SDS011;10194;50.824;7.134;2022-08-05T04:14:25;24.55;;;14.13;;
20067;SDS011;10194;50.824;7.134;2022-08-05T04:16:51;25.08;;;13.65;;
20067;SDS011;10194;50.824;7.134;2022-08-05T04:19:18;21.70;;;14.48;;
20067;SDS011;10194;50.824;7.134;2022-08-05T04:21:44;24.15;;;14.85;;
20067;SDS011;10194;50.824;7.134;2022-08-05T04:24:10;27.58;;;15.35;;
20067;SDS011;10194;50.824;7.134;2022-08-05T04:26:36;29.48;;;15.27;;
20067;SDS011;10194;50.824;7.134;2022-08-05T04:29:02;29.02;;;15.52;;
20067;SDS011;10194;50.824;7.134;2022-08-05T04:31:28;30.48;;;16.27;;
20067;SDS011;10194;50.824;7.134;2022-08-05T04:33:54;31.75;;;16.20;;
20067;SDS011;10194;50.824;7.134;2022-08-05T04:36:20;29.85;;;15.90;;
20067;SDS011;10194;50.824;7.134;2022-08-05T04:38:45;29.88;;;16.38;;
20067;SDS011;10194;50.824;7.134;2022-08-05T04:41:11;31.35;;;17.60;;
20067;SDS011;10194;50.824;7.134;2022-08-05T04:43:37;33.50;;;17.92;;
20067;SDS011;10194;50.824;7.134;2022-08-05T04:46:03;29.13;;;17.63;;
20067;SDS011;10194;50.824;7.134;2022-08-05T04:48:29;28.73;;;16.85;;
20067;SDS011;10194;50.824;7.134;2022-08-05T04:50:56;30.05;;;17.38;;
20067;SDS011;10194;50.824;7.134;2022-08-05T04:53:22;31.55;;;16.23;;
20067;SDS011;10194;50.824;7.134;2022-08-05T04:55:48;30.60;;;17.83;;
20067;SDS011;10194;50.824;7.134;2022-08-05T04:58:15;27.55;;;16.98;;
20067;SDS011;10194;50.824;7.134;2022-08-05T05:00:42;31.80;;;17.83;;
20067;SDS011;10194;50.824;7.134;2022-08-05T05:03:09;26.15;;;16.40;;
20067;SDS011;10194;50.824;7.134;2022-08-05T05:05:36;24.65;;;15.48;;
20067;SDS011;10194;50.824;7.134;2022-08-05T05:08:03;33.05;;;18.10;;
20067;SDS011;10194;50.824;7.134;2022-08-05T05:10:39;27.88;;;17.08;;
20067;SDS011;10194;50.824;7.134;2022-08-05T05:13:08;30.80;;;17.05;;
20067;SDS011;10194;50.824;7.134;2022-08-05T05:15:35;31.48;;;17.95;;
20067;SDS011;10194;50.824;7.134;2022-08-05T05:18:02;28.90;;;17.10;;
20067;SDS011;10194;50.824;7.134;2022-08-05T05:20:28;31.60;;;17.90;;
20067;SDS011;10194;50.824;7.134;2022-08-05T05:22:56;35.55;;;18.35;;
20067;SDS011;10194;50.824;7.134;2022-08-05T05:25:23;31.08;;;17.83;;
20067;SDS011;10194;50.824;7.134;2022-08-05T05:27:49;34.33;;;17.92;;
20067;SDS011;10194;50.824;7.134;2022-08-05T05:30:16;27.45;;;16.73;;
20067;SDS011;10194;50.824;7.134;2022-08-05T05:32:43;28.65;;;16.23;;
20067;SDS011;10194;50.824;7.134;2022-08-05T05:35:10;31.20;;;16.95;;
20067;SDS011;10194;50.824;7.134;2022-08-05T05:37:52;28.17;;;16.50;;
20067;SDS011;10194;50.824;7.134;2022-08-05T05:40:23;30.17;;;17.80;;
20067;SDS011;10194;50.824;7.134;2022-08-05T05:42:49;32.15;;;19.17;;
20067;SDS011;10194;50.824;7.134;2022-08-05T05:45:16;37.90;;;20.60;;
20067;SDS011;10194;50.824;7.134;2022-08-05T05:47:43;35.95;;;20.50;;
20067;SDS011;10194;50.824;7.134;2022-08-05T05:50:11;36.10;;;21.45;;
20067;SDS011;10194;50.824;7.134;2022-08-05T05:52:40;35.45;;;20.83;;
20067;SDS011;10194;50.824;7.134;2022-08-05T05:55:06;41.05;;;22.55;;
20067;SDS011;10194;50.824;7.134;2022-08-05T05:57:38;38.85;;;22.58;;
20067;SDS011;10194;50.824;7.134;2022-08-05T06:00:07;38.53;;;23.10;;
20067;SDS011;10194;50.824;7.134;2022-08-05T06:02:37;55.42;;;30.80;;
20067;SDS011;10194;50.824;7.134;2022-08-05T06:05:03;59.67;;;32.17;;
20067;SDS011;10194;50.824;7.134;2022-08-05T06:07:31;57.17;;;31.25;;
20067;SDS011;10194;50.824;7.134;2022-08-05T06:09:57;52.08;;;29.08;;
20067;SDS011;10194;50.824;7.134;2022-08-05T06:12:22;51.42;;;29.23;;
20067;SDS011;10194;50.824;7.134;2022-08-05T06:14:48;46.60;;;27.50;;
20067;SDS011;10194;50.824;7.134;2022-08-05T06:17:14;46.22;;;27.30;;
20067;SDS011;10194;50.824;7.134;2022-08-05T06:19:40;48.17;;;27.60;;
20067;SDS011;10194;50.824;7.134;2022-08-05T06:22:06;52.65;;;31.65;;
20067;SDS011;10194;50.824;7.134;2022-08-05T06:24:32;53.65;;;32.00;;
20067;SDS011;10194;50.824;7.134;2022-08-05T06:27:01;53.50;;;31.33;;
20067;SDS011;10194;50.824;7.134;2022-08-05T06:29:27;61.28;;;32.92;;
20067;SDS011;10194;50.824;7.134;2022-08-05T06:31:53;60.97;;;34.67;;
20067;SDS011;10194;50.824;7.134;2022-08-05T06:34:19;62.35;;;35.10;;
20067;SDS011;10194;50.824;7.134;2022-08-05T06:36:44;66.55;;;36.88;;
20067;SDS011;10194;50.824;7.134;2022-08-05T06:39:10;60.20;;;35.75;;
20067;SDS011;10194;50.824;7.134;2022-08-05T06:41:36;67.38;;;37.90;;
20067;SDS011;10194;50.824;7.134;2022-08-05T06:44:02;58.80;;;33.63;;
20067;SDS011;10194;50.824;7.134;2022-08-05T06:46:28;61.28;;;33.15;;
20067;SDS011;10194;50.824;7.134;2022-08-05T06:48:54;60.80;;;32.03;;
20067;SDS011;10194;50.824;7.134;2022-08-05T06:51:20;59.38;;;33.42;;
20067;SDS011;10194;50.824;7.134;2022-08-05T06:53:46;61.20;;;33.70;;
20067;SDS011;10194;50.824;7.134;2022-08-05T06:56:12;58.28;;;32.47;;
20067;SDS011;10194;50.824;7.134;2022-08-05T06:58:37;59.15;;;33.10;;
20067;SDS011;10194;50.824;7.134;2022-08-05T07:01:04;63.15;;;33.22;;
20067;SDS011;10194;50.824;7.134;2022-08-05T07:03:31;56.22;;;31.23;;
20067;SDS011;10194;50.824;7.134;2022-08-05T07:05:57;60.78;;;32.85;;
20067;SDS011;10194;50.824;7.134;2022-08-05T07:08:23;62.80;;;32.75;;
20067;SDS011;10194;50.824;7.134;2022-08-05T07:10:49;57.30;;;30.33;;
20067;SDS011;10194;50.824;7.134;2022-08-05T07:13:16;50.85;;;28.42;;
20067;SDS011;10194;50.824;7.134;2022-08-05T07:16:00;48.03;;;27.45;;
20067;SDS011;10194;50.824;7.134;2022-08-05T07:18:44;44.25;;;27.50;;
20067;SDS011;10194;50.824;7.134;2022-08-05T07:21:10;48.13;;;27.58;;
20067;SDS011;10194;50.824;7.134;2022-08-05T07:23:36;45.05;;;27.30;;
20067;SDS011;10194;50.824;7.134;2022-08-05T07:26:02;47.72;;;27.80;;
20067;SDS011;10194;50.824;7.134;2022-08-05T07:28:28;44.10;;;26.98;;
20067;SDS011;10194;50.824;7.134;2022-08-05T07:30:54;49.53;;;29.60;;
20067;SDS011;10194;50.824;7.134;2022-08-05T07:33:20;52.85;;;31.98;;
20067;SDS011;10194;50.824;7.134;2022-08-05T07:35:46;51.80;;;32.25;;
20067;SDS011;10194;50.824;7.134;2022-08-05T07:38:16;52.67;;;32.95;;
20067;SDS011;10194;50.824;7.134;2022-08-05T07:40:43;50.88;;;31.65;;
20067;SDS011;10194;50.824;7.134;2022-08-05T07:43:10;51.95;;;32.50;;
20067;SDS011;10194;50.824;7.134;2022-08-05T07:45:37;57.20;;;33.80;;
20067;SDS011;10194;50.824;7.134;2022-08-05T07:48:05;54.67;;;33.28;;
20067;SDS011;10194;50.824;7.134;2022-08-05T07:50:31;60.72;;;33.97;;
20067;SDS011;10194;50.824;7.134;2022-08-05T07:52:56;50.67;;;32.05;;
20067;SDS011;10194;50.824;7.134;2022-08-05T07:55:22;52.55;;;32.67;;
20067;SDS011;10194;50.824;7.134;2022-08-05T07:57:49;59.50;;;34.70;;
20067;SDS011;10194;50.824;7.134;2022-08-05T08:00:15;49.97;;;31.20;;
20067;SDS011;10194;50.824;7.134;2022-08-05T08:02:41;52.92;;;33.00;;
20067;SDS011;10194;50.824;7.134;2022-08-05T08:05:08;53.13;;;33.00;;
20067;SDS011;10194;50.824;7.134;2022-08-05T08:07:34;53.80;;;32.17;;
20067;SDS011;10194;50.824;7.134;2022-08-05T08:10:00;52.20;;;31.35;;
20067;SDS011;10194;50.824;7.134;2022-08-05T08:12:26;48.85;;;30.23;;
20067;SDS011;10194;50.824;7.134;2022-08-05T08:14:52;49.88;;;30.00;;
20067;SDS011;10194;50.824;7.134;2022-08-05T08:17:18;48.08;;;30.55;;
20067;SDS011;10194;50.824;7.134;2022-08-05T08:19:44;50.05;;;30.40;;
20067;SDS011;10194;50.824;7.134;2022-08-05T08:22:10;47.65;;;28.80;;
20067;SDS011;10194;50.824;7.134;2022-08-05T08:24:36;45.17;;;28.20;;
20067;SDS011;10194;50.824;7.134;2022-08-05T08:27:03;51.10;;;29.95;;
20067;SDS011;10194;50.824;7.134;2022-08-05T08:29:31;65.22;;;34.05;;
20067;SDS011;10194;50.824;7.134;2022-08-05T08:31:57;69.10;;;34.17;;
20067;SDS011;10194;50.824;7.134;2022-08-05T08:34:23;77.95;;;38.15;;
20067;SDS011;10194;50.824;7.134;2022-08-05T08:36:51;78.13;;;37.08;;
20067;SDS011;10194;50.824;7.134;2022-08-05T08:39:18;76.95;;;35.08;;
20067;SDS011;10194;50.824;7.134;2022-08-05T08:41:46;77.07;;;36.42;;
20067;SDS011;10194;50.824;7.134;2022-08-05T08:44:14;76.72;;;35.63;;
20067;SDS011;10194;50.824;7.134;2022-08-05T08:46:42;86.72;;;38.50;;
20067;SDS011;10194;50.824;7.134;2022-08-05T08:49:11;82.20;;;39.95;;
20067;SDS011;10194;50.824;7.134;2022-08-05T08:51:39;77.90;;;36.65;;
20067;SDS011;10194;50.824;7.134;2022-08-05T08:54:07;75.80;;;35.97;;
20067;SDS011;10194;50.824;7.134;2022-08-05T08:56:36;72.35;;;35.50;;
20067;SDS011;10194;50.824;7.134;2022-08-05T08:59:03;79.40;;;36.25;;
20067;SDS011;10194;50.824;7.134;2022-08-05T09:01:30;74.30;;;35.30;;
20067;SDS011;10194;50.824;7.134;2022-08-05T09:03:56;68.35;;;34.25;;
20067;SDS011;10194;50.824;7.134;2022-08-05T09:06:24;70.43;;;34.70;;
20067;SDS011;10194;50.824;7.134;2022-08-05T09:08:53;67.00;;;31.75;;
20067;SDS011;10194;50.824;7.134;2022-08-05T09:11:19;67.32;;;31.63;;
20067;SDS011;10194;50.824;7.134;2022-08-05T09:13:45;61.35;;;30.48;;
20067;SDS011;10194;50.824;7.134;2022-08-05T09:16:12;61.97;;;28.95;;
20067;SDS011;10194;50.824;7.134;2022-08-05T09:18:38;45.88;;;26.35;;
20067;SDS011;10194;50.824;7.134;2022-08-05T09:21:04;44.67;;;25.00;;
20067;SDS011;10194;50.824;7.134;2022-08-05T09:23:30;46.85;;;25.85;;
20067;SDS011;10194;50.824;7.134;2022-08-05T09:28:37;45.83;;;27.60;;
20067;SDS011;10194;50.824;7.134;2022-08-05T09:31:11;50.35;;;31.30;;
20067;SDS011;10194;50.824;7.134;2022-08-05T09:33:53;56.78;;;33.65;;
20067;SDS011;10194;50.824;7.134;2022-08-05T09:36:45;51.17;;;32.65;;
20067;SDS011;10194;50.824;7.134;2022-08-05T09:39:17;49.38;;;30.63;;
20067;SDS011;10194;50.824;7.134;2022-08-05T09:41:54;44.45;;;28.10;;
20067;SDS011;10194;50.824;7.134;2022-08-05T09:47:30;36.83;;;22.35;;
20067;SDS011;10194;50.824;7.134;2022-08-05T09:49:56;37.85;;;23.38;;
20067;SDS011;10194;50.824;7.134;2022-08-05T09:57:37;44.42;;;26.30;;
20067;SDS011;10194;50.824;7.134;2022-08-05T10:00:13;44.20;;;26.27;;
20067;SDS011;10194;50.824;7.134;2022-08-05T10:02:45;45.72;;;26.55;;
20067;SDS011;10194;50.824;7.134;2022-08-05T10:05:15;37.78;;;22.65;;
20067;SDS011;10194;50.824;7.134;2022-08-05T10:07:45;40.70;;;24.00;;
20067;SDS011;10194;50.824;7.134;2022-08-05T10:10:20;36.45;;;22.23;;
20067;SDS011;10194;50.824;7.134;2022-08-05T10:12:51;30.70;;;20.05;;
20067;SDS011;10194;50.824;7.134;2022-08-05T10:15:21;39.00;;;24.42;;
20067;SDS011;10194;50.824;7.134;2022-08-05T10:18:12;38.95;;;25.15;;
20067;SDS011;10194;50.824;7.134;2022-08-05T10:20:41;36.13;;;24.33;;
20067;SDS011;10194;50.824;7.134;2022-08-05T10:23:29;39.88;;;24.63;;
20067;SDS011;10194;50.824;7.134;2022-08-05T10:25:58;36.92;;;25.10;;
20067;SDS011;10194;50.824;7.134;2022-08-05T10:28:28;41.58;;;27.02;;
20067;SDS011;10194;50.824;7.134;2022-08-05T10:30:54;40.28;;;27.00;;
20067;SDS011;10194;50.824;7.134;2022-08-05T10:33:22;37.25;;;25.00;;
20067;SDS011;10194;50.824;7.134;2022-08-05T10:35:51;32.53;;;22.48;;
20067;SDS011;10194;50.824;7.134;2022-08-05T10:38:20;27.83;;;19.50;;
20067;SDS011;10194;50.824;7.134;2022-08-05T10:46:10;16.65;;;12.63;;
20067;SDS011;10194;50.824;7.134;2022-08-05T10:48:39;20.02;;;13.32;;
20067;SDS011;10194;50.824;7.134;2022-08-05T10:51:09;17.92;;;14.13;;
20067;SDS011;10194;50.824;7.134;2022-08-05T10:53:36;16.52;;;12.45;;
20067;SDS011;10194;50.824;7.134;2022-08-05T10:56:08;14.02;;;11.48;;
20067;SDS011;10194;50.824;7.134;2022-08-05T10:58:46;14.82;;;11.25;;
20067;SDS011;10194;50.824;7.134;2022-08-05T11:01:34;15.75;;;10.93;;
20067;SDS011;10194;50.824;7.134;2022-08-05T11:04:04;16.60;;;10.35;;
20067;SDS011;10194;50.824;7.134;2022-08-05T11:06:33;13.07;;;9.77;;
20067;SDS011;10194;50.824;7.134;2022-08-05T11:09:21;13.75;;;8.35;;
20067;SDS011;10194;50.824;7.134;2022-08-05T11:17:40;11.77;;;6.93;;
20067;SDS011;10194;50.824;7.134;2022-08-05T11:22:58;8.60;;;6.00;;
20067;SDS011;10194;50.824;7.134;2022-08-05T11:36:10;6.22;;;5.00;;
20067;SDS011;10194;50.824;7.134;2022-08-05T11:43:43;8.30;;;5.25;;
20067;SDS011;10194;50.824;7.134;2022-08-05T11:46:51;11.10;;;5.60;;
20067;SDS011;10194;50.824;7.134;2022-08-05T11:49:18;5.60;;;4.53;;
20067;SDS011;10194;50.824;7.134;2022-08-05T11:51:47;5.80;;;4.05;;
20067;SDS011;10194;50.824;7.134;2022-08-05T11:54:48;5.60;;;4.25;;
20067;SDS011;10194;50.824;7.134;2022-08-05T11:57:07;6.88;;;4.43;;
20067;SDS011;10194;50.824;7.134;2022-08-05T11:59:33;8.70;;;4.10;;
20067;SDS011;10194;50.824;7.134;2022-08-05T12:02:03;7.07;;;4.00;;
20067;SDS011;10194;50.824;7.134;2022-08-05T12:04:40;6.55;;;3.85;;
20067;SDS011;10194;50.824;7.134;2022-08-05T12:07:07;6.85;;;4.05;;
20067;SDS011;10194;50.824;7.134;2022-08-05T12:09:36;5.15;;;3.42;;
20067;SDS011;10194;50.824;7.134;2022-08-05T12:12:12;5.28;;;2.97;;
20067;SDS011;10194;50.824;7.134;2022-08-05T12:14:45;5.70;;;3.60;;
20067;SDS011;10194;50.824;7.134;2022-08-05T12:17:12;4.47;;;3.50;;
20067;SDS011;10194;50.824;7.134;2022-08-05T12:19:49;5.75;;;3.97;;
20067;SDS011;10194;50.824;7.134;2022-08-05T12:22:19;5.90;;;3.67;;
20067;SDS011;10194;50.824;7.134;2022-08-05T12:24:50;6.28;;;3.90;;
20067;SDS011;10194;50.824;7.134;2022-08-05T12:27:20;5.82;;;3.55;;
20067;SDS011;10194;50.824;7.134;2022-08-05T12:30:02;6.53;;;4.00;;
20067;SDS011;10194;50.824;7.134;2022-08-05T12:32:35;6.55;;;4.20;;
20067;SDS011;10194;50.824;7.134;2022-08-05T12:35:17;9.55;;;4.72;;
20067;SDS011;10194;50.824;7.134;2022-08-05T12:37:44;7.20;;;3.35;;
20067;SDS011;10194;50.824;7.134;2022-08-05T12:40:11;5.65;;;3.60;;
20067;SDS011;10194;50.824;7.134;2022-08-05T12:42:37;6.20;;;3.55;;
20067;SDS011;10194;50.824;7.134;2022-08-05T12:45:05;8.95;;;4.30;;
20067;SDS011;10194;50.824;7.134;2022-08-05T12:47:35;6.22;;;3.45;;
20067;SDS011;10194;50.824;7.134;2022-08-05T12:50:14;5.07;;;3.08;;
20067;SDS011;10194;50.824;7.134;2022-08-05T12:52:41;7.03;;;3.42;;
20067;SDS011;10194;50.824;7.134;2022-08-05T12:55:20;6.90;;;3.00;;
20067;SDS011;10194;50.824;7.134;2022-08-05T12:57:49;3.42;;;2.90;;
20067;SDS011;10194;50.824;7.134;2022-08-05T13:00:21;4.07;;;3.10;;
20067;SDS011;10194;50.824;7.134;2022-08-05T13:02:49;5.88;;;3.17;;
20067;SDS011;10194;50.824;7.134;2022-08-05T13:05:16;6.32;;;3.28;;
20067;SDS011;10194;50.824;7.134;2022-08-05T13:07:44;3.95;;;2.95;;
20067;SDS011;10194;50.824;7.134;2022-08-05T13:10:11;3.78;;;3.30;;
20067;SDS011;10194;50.824;7.134;2022-08-05T13:12:40;4.00;;;3.13;;
20067;SDS011;10194;50.824;7.134;2022-08-05T13:15:08;5.20;;;3.30;;
20067;SDS011;10194;50.824;7.134;2022-08-05T13:17:36;4.43;;;3.00;;
20067;SDS011;10194;50.824;7.134;2022-08-05T13:20:06;4.18;;;2.85;;
20067;SDS011;10194;50.824;7.134;2022-08-05T13:22:46;4.90;;;3.65;;
20067;SDS011;10194;50.824;7.134;2022-08-05T13:25:15;5.22;;;3.30;;
20067;SDS011;10194;50.824;7.134;2022-08-05T13:27:50;4.85;;;3.50;;
20067;SDS011;10194;50.824;7.134;2022-08-05T13:30:20;5.75;;;3.80;;
20067;SDS011;10194;50.824;7.134;2022-08-05T13:32:51;5.00;;;3.63;;
20067;SDS011;10194;50.824;7.134;2022-08-05T13:35:18;3.75;;;3.28;;
20067;SDS011;10194;50.824;7.134;2022-08-05T13:37:45;4.75;;;3.38;;
20067;SDS011;10194;50.824;7.134;2022-08-05T13:40:12;4.18;;;3.42;;
20067;SDS011;10194;50.824;7.134;2022-08-05T13:42:38;5.25;;;3.15;;
20067;SDS011;10194;50.824;7.134;2022-08-05T13:45:08;4.95;;;3.03;;
20067;SDS011;10194;50.824;7.134;2022-08-05T13:47:34;6.45;;;3.53;;
20067;SDS011;10194;50.824;7.134;2022-08-05T13:50:02;4.80;;;3.13;;
20067;SDS011;10194;50.824;7.134;2022-08-05T13:52:30;5.03;;;3.65;;
20067;SDS011;10194;50.824;7.134;2022-08-05T13:54:56;6.65;;;4.15;;
20067;SDS011;10194;50.824;7.134;2022-08-05T13:57:25;7.07;;;4.65;;
20067;SDS011;10194;50.824;7.134;2022-08-05T13:59:51;7.45;;;5.22;;
20067;SDS011;10194;50.824;7.134;2022-08-05T14:02:17;6.55;;;5.45;;
20067;SDS011;10194;50.824;7.134;2022-08-05T14:04:44;6.55;;;5.85;;
20067;SDS011;10194;50.824;7.134;2022-08-05T14:07:30;8.55;;;5.82;;
20067;SDS011;10194;50.824;7.134;2022-08-05T14:10:03;7.68;;;5.32;;
20067;SDS011;10194;50.824;7.134;2022-08-05T14:12:38;8.85;;;5.55;;
20067;SDS011;10194;50.824;7.134;2022-08-05T14:15:04;10.23;;;5.68;;
20067;SDS011;10194;50.824;7.134;2022-08-05T14:17:31;7.13;;;5.60;;
20067;SDS011;10194;50.824;7.134;2022-08-05T14:19:57;9.75;;;6.22;;
20067;SDS011;10194;50.824;7.134;2022-08-05T14:22:23;6.65;;;5.60;;
20067;SDS011;10194;50.824;7.134;2022-08-05T14:24:48;7.35;;;6.63;;
20067;SDS011;10194;50.824;7.134;2022-08-05T14:27:15;7.00;;;6.30;;
20067;SDS011;10194;50.824;7.134;2022-08-05T14:29:40;7.05;;;6.30;;
20067;SDS011;10194;50.824;7.134;2022-08-05T14:32:06;7.47;;;6.70;;
20067;SDS011;10194;50.824;7.134;2022-08-05T14:34:32;11.18;;;7.55;;
20067;SDS011;10194;50.824;7.134;2022-08-05T14:36:58;7.80;;;6.85;;
20067;SDS011;10194;50.824;7.134;2022-08-05T14:39:24;7.90;;;6.72;;
20067;SDS011;10194;50.824;7.134;2022-08-05T14:41:51;10.35;;;7.30;;
20067;SDS011;10194;50.824;7.134;2022-08-05T14:44:17;13.93;;;7.47;;
20067;SDS011;10194;50.824;7.134;2022-08-05T14:46:43;8.45;;;6.95;;
20067;SDS011;10194;50.824;7.134;2022-08-05T14:49:08;7.50;;;6.07;;
20067;SDS011;10194;50.824;7.134;2022-08-05T14:51:37;8.60;;;6.68;;
20067;SDS011;10194;50.824;7.134;2022-08-05T14:54:05;10.93;;;6.85;;
20067;SDS011;10194;50.824;7.134;2022-08-05T14:56:32;8.93;;;6.50;;
20067;SDS011;10194;50.824;7.134;2022-08-05T14:58:58;9.13;;;6.30;;
20067;SDS011;10194;50.824;7.134;2022-08-05T15:01:24;9.38;;;6.35;;
20067;SDS011;10194;50.824;7.134;2022-08-05T15:03:50;7.38;;;5.90;;
20067;SDS011;10194;50.824;7.134;2022-08-05T15:06:16;8.18;;;6.30;;
20067;SDS011;10194;50.824;7.134;2022-08-05T15:08:42;9.75;;;6.20;;
20067;SDS011;10194;50.824;7.134;2022-08-05T15:11:10;6.65;;;6.05;;
20067;SDS011;10194;50.824;7.134;2022-08-05T15:13:36;8.77;;;6.55;;
20067;SDS011;10194;50.824;7.134;2022-08-05T15:16:02;7.45;;;5.90;;
20067;SDS011;10194;50.824;7.134;2022-08-05T15:18:28;6.80;;;5.88;;
20067;SDS011;10194;50.824;7.134;2022-08-05T15:20:54;7.45;;;5.40;;
20067;SDS011;10194;50.824;7.134;2022-08-05T15:23:20;7.80;;;5.63;;
20067;SDS011;10194;50.824;7.134;2022-08-05T15:25:46;5.68;;;5.18;;
20067;SDS011;10194;50.824;7.134;2022-08-05T15:28:12;8.02;;;6.90;;
20067;SDS011;10194;50.824;7.134;2022-08-05T15:30:39;5.22;;;4.22;;
20067;SDS011;10194;50.824;7.134;2022-08-05T15:33:05;5.47;;;3.90;;